Joseph City, Arizona
Current Conditions -  °F | °C
As of 8:56 PM on Sunday 21 Dec 2014 (Local Time) from KINW Reporting Station
Clear Clear  
Wind Chill: 33°   Ceiling: Unl
Heat Index: 38°   Visibility: 10mi
Dew Point: 34°   Wind: 6mph
Humidity: 86%   Direction: 180°S
Pressure: 30.03"   Gusts: NA
Location:  34.96°N, 110.34°W
Report Text: KINW 220356Z AUTO 18005KT 10SM CLR 03/01 A3003 RMK AO2 SLP177 T00330011
Loading
Personal Weather Stations






























Interactive Weather Map New forecast layout! Learn more

10-Day Weather Forecast

Advertisements
Track Severe Weather on mobile